createdAt,value
2019-03-26T00:01:12.175Z,93.15
2019-03-26T00:03:41.629Z,92.87
2019-03-26T00:06:11.077Z,92.24
2019-03-26T00:08:40.638Z,92.03
2019-03-26T00:11:10.288Z,92.20
2019-03-26T00:13:39.686Z,92.22
2019-03-26T00:16:09.052Z,92.23
2019-03-26T00:18:38.421Z,92.03
2019-03-26T00:21:08.107Z,91.72
2019-03-26T00:23:37.834Z,91.44
2019-03-26T00:26:07.235Z,91.69
2019-03-26T00:28:36.985Z,91.12
2019-03-26T00:31:06.384Z,90.75
2019-03-26T00:33:36.902Z,90.51
2019-03-26T00:36:06.516Z,91.79
2019-03-26T00:38:36.015Z,91.96
2019-03-26T00:41:17.183Z,91.78
2019-03-26T00:43:46.537Z,90.62
2019-03-26T00:46:15.911Z,90.59
2019-03-26T00:48:45.448Z,90.73
2019-03-26T00:51:15.027Z,90.24
2019-03-26T00:53:44.382Z,90.03
2019-03-26T00:56:14.966Z,90.01
2019-03-26T00:58:44.308Z,89.79
2019-03-26T01:01:16.036Z,89.85
2019-03-26T01:03:45.442Z,90.20
2019-03-26T01:17:09.656Z,89.98
2019-03-26T01:19:39.171Z,90.59
2019-03-26T01:22:08.603Z,90.20
2019-03-26T01:24:38.030Z,89.81
2019-03-26T01:27:07.484Z,90.32
2019-03-26T01:29:36.808Z,90.14
2019-03-26T01:32:06.317Z,89.95
2019-03-26T01:34:45.454Z,89.73
2019-03-26T01:37:07.447Z,89.35
2019-03-26T01:39:36.930Z,89.82
2019-03-26T01:42:07.484Z,88.88
2019-03-26T01:44:37.057Z,88.35
2019-03-26T01:47:06.402Z,87.72
2019-03-26T01:49:35.816Z,87.23
2019-03-26T01:52:05.249Z,87.01
2019-03-26T01:54:34.604Z,86.09
2019-03-26T01:57:04.024Z,85.97
2019-03-26T01:59:33.373Z,86.11
2019-03-26T02:02:02.866Z,86.86
2019-03-26T02:04:32.280Z,86.44
2019-03-26T02:07:01.694Z,86.64
2019-03-26T02:09:31.134Z,86.67
2019-03-26T02:12:01.616Z,86.95
2019-03-26T02:14:30.973Z,87.39
2019-03-26T02:17:00.368Z,87.86
2019-03-26T02:19:29.920Z,87.10
2019-03-26T02:21:59.285Z,87.15
2019-03-26T02:24:28.825Z,86.97
2019-03-26T02:26:58.261Z,86.57
2019-03-26T02:29:27.669Z,87.40
2019-03-26T02:31:57.268Z,86.97
2019-03-26T02:34:26.710Z,87.19
2019-03-26T02:36:56.069Z,87.56
2019-03-26T02:39:25.536Z,86.74
2019-03-26T02:41:54.898Z,86.74
2019-03-26T02:44:24.302Z,87.27
2019-03-26T02:46:53.757Z,87.16
2019-03-26T02:49:23.092Z,87.89
2019-03-26T02:51:52.452Z,86.49
2019-03-26T02:54:21.903Z,86.14
2019-03-26T02:56:51.253Z,86.49
2019-03-26T02:59:20.646Z,86.61
2019-03-26T03:01:50.008Z,86.36
2019-03-26T03:04:19.446Z,86.35
2019-03-26T03:06:48.931Z,85.86
2019-03-26T03:09:18.310Z,85.88
2019-03-26T03:11:47.748Z,85.60
2019-03-26T03:14:17.204Z,86.09
2019-03-26T03:16:46.600Z,86.50
2019-03-26T03:19:16.482Z,86.07
2019-03-26T03:21:46.047Z,86.26
2019-03-26T03:24:15.363Z,86.14
2019-03-26T03:26:44.717Z,86.06
2019-03-26T03:29:14.047Z,86.24
2019-03-26T03:31:43.406Z,86.84
2019-03-26T03:34:12.869Z,86.97
2019-03-26T03:36:42.759Z,86.98
2019-03-26T03:39:12.338Z,87.62
2019-03-26T03:41:42.959Z,87.81
2019-03-26T03:44:12.397Z,87.68
2019-03-26T03:46:44.049Z,87.75
2019-03-26T03:49:21.091Z,87.84
2019-03-26T03:51:51.411Z,88.18
2019-03-26T03:54:21.963Z,88.16
2019-03-26T03:57:03.281Z,87.88
2019-03-26T03:59:32.810Z,87.73
2019-03-26T04:02:02.307Z,87.83
2019-03-26T04:04:31.649Z,87.56
2019-03-26T04:07:01.020Z,87.78
2019-03-26T04:09:30.443Z,88.41
2019-03-26T04:11:59.922Z,87.92
2019-03-26T04:14:29.325Z,87.51
2019-03-26T04:16:59.018Z,87.63
2019-03-26T04:19:28.437Z,88.14
2019-03-26T04:21:57.789Z,88.05
2019-03-26T04:24:27.329Z,88.15
2019-03-26T04:26:56.854Z,88.18
2019-03-26T04:29:26.161Z,88.37
2019-03-26T04:31:55.525Z,88.35
2019-03-26T04:34:25.014Z,88.25
2019-03-26T04:36:54.492Z,88.08
2019-03-26T04:39:23.867Z,87.95
2019-03-26T04:41:53.423Z,87.18
2019-03-26T04:44:22.817Z,85.90
2019-03-26T04:46:52.217Z,85.36
2019-03-26T04:49:21.607Z,85.11
2019-03-26T04:51:51.135Z,85.33
2019-03-26T04:54:20.481Z,86.16
2019-03-26T04:56:49.884Z,86.34
2019-03-26T04:59:19.365Z,86.55
2019-03-26T05:01:48.762Z,87.38
2019-03-26T05:04:18.117Z,87.99
2019-03-26T05:06:47.631Z,87.89
2019-03-26T05:09:17.250Z,87.70
2019-03-26T05:11:46.818Z,87.96
2019-03-26T05:14:16.177Z,88.02
2019-03-26T05:16:47.142Z,88.22
2019-03-26T05:19:16.699Z,88.25
2019-03-26T05:21:46.167Z,88.51
2019-03-26T05:24:15.527Z,87.99
2019-03-26T05:26:44.851Z,87.48
2019-03-26T05:29:14.287Z,84.85
2019-03-26T05:31:43.656Z,84.15
2019-03-26T05:34:13.120Z,83.45
2019-03-26T05:36:51.158Z,84.21
2019-03-26T05:39:13.799Z,84.50
2019-03-26T05:41:44.446Z,84.66
2019-03-26T05:44:13.947Z,84.74
2019-03-26T05:46:43.403Z,85.08
2019-03-26T05:49:12.824Z,85.07
2019-03-26T05:51:42.190Z,85.14
2019-03-26T05:54:12.082Z,84.88
2019-03-26T05:56:43.119Z,84.88
2019-03-26T05:59:12.898Z,84.77
2019-03-26T06:01:42.461Z,84.44
2019-03-26T06:04:12.160Z,84.10
2019-03-26T06:06:43.855Z,84.43
2019-03-26T06:09:13.445Z,84.20
2019-03-26T06:11:42.951Z,83.89
2019-03-26T06:14:12.301Z,83.55
2019-03-26T06:16:41.867Z,83.52
2019-03-26T06:19:11.284Z,83.32
2019-03-26T06:21:40.626Z,83.56
2019-03-26T06:24:10.010Z,83.29
2019-03-26T06:26:39.401Z,82.80
2019-03-26T06:29:08.757Z,82.63
2019-03-26T06:31:38.219Z,82.33
2019-03-26T06:34:10.398Z,81.68
2019-03-26T06:36:39.254Z,81.63
2019-03-26T06:39:09.424Z,81.41
2019-03-26T06:41:39.867Z,80.84
2019-03-26T06:44:09.374Z,80.09
2019-03-26T06:46:38.833Z,80.55
2019-03-26T06:49:08.198Z,80.52
2019-03-26T06:51:38.021Z,80.13
2019-03-26T06:54:07.419Z,80.47
2019-03-26T06:56:36.831Z,80.66
2019-03-26T06:59:06.242Z,80.13
2019-03-26T07:01:35.678Z,80.57
2019-03-26T07:04:05.287Z,80.01
2019-03-26T07:06:34.688Z,79.76
2019-03-26T07:09:05.101Z,79.98
2019-03-26T07:11:34.448Z,80.21
2019-03-26T07:14:03.996Z,79.94
2019-03-26T07:16:33.469Z,79.60
2019-03-26T07:19:02.877Z,79.99
2019-03-26T07:21:32.556Z,80.40
2019-03-26T07:24:02.022Z,80.16
2019-03-26T07:26:31.365Z,79.85
2019-03-26T07:29:00.858Z,80.27
2019-03-26T07:31:30.601Z,80.59
2019-03-26T07:34:00.584Z,80.42
2019-03-26T07:36:29.910Z,80.25
2019-03-26T07:38:59.260Z,80.54
2019-03-26T07:41:28.614Z,80.30
2019-03-26T07:43:58.027Z,78.81
2019-03-26T07:46:27.404Z,79.08
2019-03-26T07:48:56.762Z,82.08
2019-03-26T07:51:26.220Z,83.92
2019-03-26T07:53:55.573Z,84.80
2019-03-26T07:56:25.004Z,85.15
2019-03-26T07:58:55.190Z,85.35
2019-03-26T08:01:24.618Z,85.89
2019-03-26T08:03:54.138Z,84.73
2019-03-26T08:06:23.533Z,84.52
2019-03-26T08:08:52.954Z,84.29
2019-03-26T08:11:22.335Z,84.05
2019-03-26T08:13:51.700Z,84.18
2019-03-26T08:16:21.067Z,82.77
2019-03-26T08:18:50.412Z,81.43
2019-03-26T08:21:20.137Z,80.63
2019-03-26T08:23:49.500Z,80.49
2019-03-26T08:26:18.845Z,80.07
2019-03-26T08:28:48.275Z,79.50
2019-03-26T08:31:17.629Z,78.85
2019-03-26T08:33:47.006Z,78.94
2019-03-26T08:36:16.779Z,78.74
2019-03-26T08:38:46.118Z,77.45
2019-03-26T08:41:15.448Z,77.12
2019-03-26T08:43:44.873Z,77.57
2019-03-26T08:46:14.214Z,74.64
2019-03-26T08:48:43.550Z,75.61
2019-03-26T08:51:13.061Z,75.48
2019-03-26T08:53:42.416Z,75.17
2019-03-26T08:56:11.763Z,75.90
2019-03-26T08:58:41.123Z,76.32
2019-03-26T09:01:10.583Z,76.41
2019-03-26T09:03:39.967Z,77.45
2019-03-26T09:06:09.420Z,78.80
2019-03-26T09:08:38.813Z,79.38
2019-03-26T09:11:08.224Z,80.21
2019-03-26T09:13:37.642Z,81.60
2019-03-26T09:16:07.075Z,83.81
2019-03-26T09:18:36.448Z,85.06
2019-03-26T09:21:05.853Z,85.49
2019-03-26T09:23:35.233Z,86.84
2019-03-26T09:26:04.662Z,86.98
2019-03-26T09:28:34.002Z,86.60
2019-03-26T09:31:03.362Z,86.54
2019-03-26T09:33:32.714Z,85.76
2019-03-26T09:36:02.283Z,85.81
2019-03-26T09:38:38.791Z,84.98
2019-03-26T09:41:02.825Z,83.21
2019-03-26T09:43:32.164Z,82.25
2019-03-26T09:46:01.706Z,80.42
2019-03-26T09:48:31.046Z,79.41
2019-03-26T09:51:00.396Z,78.80
2019-03-26T09:53:29.778Z,75.24
2019-03-26T09:55:59.151Z,76.03
2019-03-26T09:58:28.598Z,75.80
2019-03-26T10:00:57.954Z,77.64
2019-03-26T10:03:27.275Z,76.69
2019-03-26T10:05:56.857Z,77.04
2019-03-26T10:08:26.202Z,75.28
2019-03-26T10:10:55.544Z,75.39
2019-03-26T10:13:25.038Z,75.75
2019-03-26T10:15:54.462Z,75.10
2019-03-26T10:18:23.796Z,75.38
2019-03-26T10:20:53.229Z,74.38
2019-03-26T10:23:22.649Z,73.96
2019-03-26T10:25:52.055Z,71.58
2019-03-26T10:28:21.497Z,72.09
2019-03-26T10:30:51.017Z,71.06
2019-03-26T10:33:20.382Z,69.93
2019-03-26T10:35:49.810Z,67.60
2019-03-26T10:38:19.689Z,67.64
2019-03-26T10:40:52.158Z,67.97
2019-03-26T10:43:21.496Z,67.73
2019-03-26T10:45:50.839Z,67.46
2019-03-26T10:48:20.263Z,67.52
2019-03-26T10:50:49.769Z,67.55
2019-03-26T10:53:19.141Z,66.76
2019-03-26T10:55:48.560Z,67.47
2019-03-26T10:58:17.952Z,67.39
2019-03-26T11:00:47.306Z,66.79
2019-03-26T11:03:16.635Z,67.59
2019-03-26T11:05:46.013Z,68.56
2019-03-26T11:08:15.366Z,68.79
2019-03-26T11:10:44.832Z,68.24
2019-03-26T11:13:14.257Z,69.99
2019-03-26T11:15:43.780Z,69.51
2019-03-26T11:18:13.107Z,68.76
2019-03-26T11:20:42.731Z,67.57
2019-03-26T11:23:12.305Z,65.77
2019-03-26T11:25:42.195Z,65.79
2019-03-26T11:28:11.615Z,66.00
2019-03-26T11:30:41.416Z,66.91
2019-03-26T11:33:10.899Z,67.60
2019-03-26T11:35:40.461Z,68.37
2019-03-26T11:38:09.980Z,67.50
2019-03-26T11:40:39.399Z,67.82
2019-03-26T11:43:08.803Z,67.51
2019-03-26T11:45:38.230Z,67.59
2019-03-26T11:48:07.616Z,66.07
2019-03-26T11:50:37.227Z,65.52
2019-03-26T11:53:07.042Z,66.03
2019-03-26T11:55:36.429Z,66.74
2019-03-26T11:58:05.835Z,67.43
2019-03-26T12:00:37.100Z,68.34
2019-03-26T12:03:06.644Z,68.77
2019-03-26T12:05:37.280Z,68.62
2019-03-26T12:08:06.628Z,68.17
2019-03-26T12:10:36.052Z,67.74
2019-03-26T12:13:05.583Z,67.84
2019-03-26T12:15:35.047Z,68.13
2019-03-26T12:18:04.527Z,68.88
2019-03-26T12:20:34.249Z,68.96
2019-03-26T12:23:03.593Z,68.58
2019-03-26T12:25:32.971Z,68.53
2019-03-26T12:28:02.652Z,68.32
2019-03-26T12:30:34.877Z,68.82
2019-03-26T12:33:04.861Z,69.38
2019-03-26T12:35:34.572Z,68.83
2019-03-26T12:38:15.441Z,69.83
2019-03-26T12:40:45.746Z,69.92
2019-03-26T12:43:16.265Z,70.44
2019-03-26T12:45:45.778Z,69.99
2019-03-26T12:48:15.182Z,70.04
2019-03-26T12:50:45.057Z,69.82
2019-03-26T12:53:14.452Z,69.47
2019-03-26T12:55:44.273Z,69.33
2019-03-26T12:58:13.682Z,69.63
2019-03-26T13:00:43.638Z,69.74
2019-03-26T13:03:13.095Z,70.44
2019-03-26T13:05:42.841Z,70.70
2019-03-26T13:08:12.329Z,71.02
2019-03-26T13:10:52.799Z,70.69
2019-03-26T13:13:13.245Z,71.39
2019-03-26T13:15:44.265Z,71.87
2019-03-26T13:18:13.747Z,72.08
2019-03-26T13:20:43.502Z,72.46
2019-03-26T13:23:13.372Z,72.15
2019-03-26T13:25:43.578Z,72.25
2019-03-26T13:28:13.367Z,72.48
2019-03-26T13:30:43.108Z,72.07
2019-03-26T13:33:12.692Z,72.69
2019-03-26T13:35:42.099Z,73.10
2019-03-26T13:38:11.669Z,72.64
2019-03-26T13:40:41.122Z,72.54
2019-03-26T13:43:11.537Z,71.87
2019-03-26T13:45:41.146Z,72.00
2019-03-26T13:48:10.511Z,72.08
2019-03-26T13:50:39.944Z,71.73
2019-03-26T13:53:09.375Z,72.19
2019-03-26T13:55:38.806Z,71.84
2019-03-26T13:58:08.140Z,72.30
2019-03-26T14:00:39.805Z,71.86
2019-03-26T14:03:09.425Z,70.99
2019-03-26T14:05:38.963Z,70.58
2019-03-26T14:08:08.376Z,70.20
2019-03-26T14:10:41.219Z,69.53
2019-03-26T14:13:09.252Z,68.97
2019-03-26T14:15:58.068Z,68.46
2019-03-26T14:18:28.181Z,67.04
2019-03-26T14:21:00.905Z,66.49
2019-03-26T14:23:31.686Z,65.56
2019-03-26T14:26:01.060Z,65.86
2019-03-26T14:28:30.487Z,65.13
2019-03-26T14:30:59.950Z,65.80
2019-03-26T14:33:29.313Z,65.70
2019-03-26T14:35:58.713Z,66.19
2019-03-26T14:38:28.148Z,66.59
2019-03-26T14:40:57.480Z,67.24
2019-03-26T14:43:26.832Z,68.95
2019-03-26T14:45:56.239Z,68.80
2019-03-26T14:48:25.704Z,69.17
2019-03-26T14:50:55.288Z,69.38
2019-03-26T14:53:24.649Z,69.62
2019-03-26T14:55:54.057Z,70.15
2019-03-26T14:58:23.498Z,70.36
2019-03-26T15:00:52.847Z,70.85
2019-03-26T15:03:22.221Z,70.95
2019-03-26T15:05:55.076Z,70.25
2019-03-26T15:08:26.498Z,70.58
2019-03-26T15:11:07.506Z,70.54
2019-03-26T15:13:27.327Z,70.73
2019-03-26T15:15:56.703Z,70.87
2019-03-26T15:18:26.033Z,70.83
2019-03-26T15:20:55.467Z,71.38
2019-03-26T15:23:24.938Z,71.28
2019-03-26T15:26:00.836Z,70.95
2019-03-26T15:28:29.209Z,71.18
2019-03-26T15:31:19.278Z,71.52
2019-03-26T15:33:48.881Z,71.51
2019-03-26T15:36:18.318Z,71.96
2019-03-26T15:38:49.670Z,71.75
2019-03-26T15:41:21.772Z,72.27
2019-03-26T15:43:53.770Z,72.53
2019-03-26T15:46:23.178Z,73.28
2019-03-26T15:48:52.576Z,73.27
2019-03-26T15:51:22.100Z,73.50
2019-03-26T15:53:51.483Z,74.32
2019-03-26T15:56:20.965Z,75.24
2019-03-26T15:58:50.746Z,75.88
2019-03-26T16:01:20.234Z,75.46
2019-03-26T16:03:49.646Z,75.26
2019-03-26T16:06:19.042Z,75.60
2019-03-26T16:08:48.677Z,76.09
2019-03-26T16:11:18.031Z,75.41
2019-03-26T16:13:47.381Z,76.57
2019-03-26T16:16:16.704Z,77.64
2019-03-26T16:18:46.730Z,78.17
2019-03-26T16:21:16.150Z,78.95
2019-03-26T16:23:45.469Z,78.45
2019-03-26T16:26:15.055Z,78.94
2019-03-26T16:28:45.975Z,81.15
2019-03-26T16:31:15.358Z,81.03
2019-03-26T16:36:20.526Z,82.85
2019-03-26T16:38:49.872Z,84.86
2019-03-26T16:41:19.201Z,85.10
2019-03-26T16:43:48.523Z,85.91
2019-03-26T16:46:17.902Z,87.05
2019-03-26T16:48:47.745Z,87.21
2019-03-26T16:51:17.171Z,88.98
2019-03-26T16:53:46.596Z,88.58
2019-03-26T16:56:16.093Z,90.67
2019-03-26T16:58:45.588Z,88.88
2019-03-26T17:01:17.862Z,90.64
2019-03-26T17:03:56.901Z,89.13
2019-03-26T17:06:36.535Z,90.15
2019-03-26T17:09:07.683Z,90.82
2019-03-26T17:11:37.170Z,91.22
2019-03-26T17:14:06.790Z,92.71
2019-03-26T17:16:37.760Z,92.45
2019-03-26T17:19:07.263Z,91.93
2019-03-26T17:21:36.695Z,92.83
2019-03-26T17:24:06.313Z,92.55
2019-03-26T17:26:35.765Z,93.05
2019-03-26T17:29:05.707Z,91.77
2019-03-26T17:31:35.571Z,92.38
2019-03-26T17:34:05.416Z,93.81
2019-03-26T17:36:35.002Z,92.47
2019-03-26T17:39:06.765Z,91.99
2019-03-26T17:41:39.463Z,91.88
2019-03-26T17:44:08.955Z,91.86
2019-03-26T17:46:39.969Z,91.34
2019-03-26T17:49:14.966Z,91.53
2019-03-26T17:51:45.347Z,92.05
2019-03-26T17:54:14.881Z,92.13
2019-03-26T17:56:47.251Z,91.54
2019-03-26T17:59:15.357Z,91.34
2019-03-26T18:01:44.751Z,91.36
2019-03-26T18:04:15.828Z,91.54
2019-03-26T18:06:45.301Z,91.83
2019-03-26T18:09:14.756Z,91.43
2019-03-26T18:11:44.087Z,91.33
2019-03-26T18:14:13.490Z,91.02
2019-03-26T18:16:42.881Z,91.42
2019-03-26T18:19:12.773Z,91.70
2019-03-26T18:21:51.432Z,91.93
2019-03-26T18:24:13.251Z,91.62
2019-03-26T18:26:42.668Z,91.54
2019-03-26T18:29:14.588Z,91.84
2019-03-26T18:31:43.867Z,91.87
2019-03-26T18:34:13.328Z,91.70
2019-03-26T18:36:44.109Z,91.57
2019-03-26T18:39:13.827Z,91.69
2019-03-26T18:41:43.331Z,92.11
2019-03-26T18:44:13.158Z,91.57
2019-03-26T18:46:42.668Z,91.44
2019-03-26T18:49:12.099Z,91.06
2019-03-26T18:51:41.562Z,91.21
2019-03-26T18:54:10.898Z,91.13
2019-03-26T18:56:40.219Z,90.99
2019-03-26T18:59:09.584Z,91.42
2019-03-26T19:01:39.132Z,91.17
2019-03-26T19:04:08.536Z,91.26
2019-03-26T19:06:37.935Z,91.32
2019-03-26T19:09:08.663Z,91.91
2019-03-26T19:11:38.084Z,91.71
2019-03-26T19:14:07.576Z,91.55
2019-03-26T19:16:36.984Z,91.79
2019-03-26T19:19:06.610Z,92.26
2019-03-26T19:21:35.942Z,92.58
2019-03-26T19:24:06.406Z,92.92
2019-03-26T19:26:46.858Z,93.41
2019-03-26T19:29:22.897Z,93.19
2019-03-26T19:31:52.192Z,93.52
2019-03-26T19:34:24.123Z,93.70
2019-03-26T19:36:53.557Z,94.18
2019-03-26T19:39:22.947Z,93.83
2019-03-26T19:41:52.488Z,94.31
2019-03-26T19:44:21.829Z,95.48
2019-03-26T19:46:51.706Z,95.64
2019-03-26T19:49:21.198Z,94.97
2019-03-26T19:51:50.651Z,95.18
2019-03-26T19:54:20.002Z,95.17
2019-03-26T19:56:50.289Z,94.98
2019-03-26T19:59:19.749Z,94.90
2019-03-26T20:01:49.402Z,95.35
2019-03-26T20:04:18.862Z,94.99
2019-03-26T20:06:48.494Z,94.93
2019-03-26T20:09:18.151Z,95.18
2019-03-26T20:11:47.745Z,95.38
2019-03-26T20:14:17.108Z,95.21
2019-03-26T20:16:46.785Z,95.86
2019-03-26T20:19:16.110Z,96.21
2019-03-26T20:21:45.558Z,96.16
2019-03-26T20:24:14.914Z,95.77
2019-03-26T20:26:44.516Z,95.64
2019-03-26T20:29:13.965Z,95.50
2019-03-26T20:31:43.516Z,95.20
2019-03-26T20:34:12.906Z,95.53
2019-03-26T20:36:42.536Z,95.44
2019-03-26T20:39:12.390Z,95.57
2019-03-26T20:41:41.817Z,95.32
2019-03-26T20:44:11.556Z,95.89
2019-03-26T20:46:41.097Z,95.43
2019-03-26T20:49:10.420Z,95.24
2019-03-26T20:51:39.866Z,96.00
2019-03-26T20:54:09.347Z,95.76
2019-03-26T20:56:40.920Z,95.77
2019-03-26T20:59:11.137Z,95.43
2019-03-26T21:01:40.497Z,95.62
2019-03-26T21:04:09.846Z,95.56
2019-03-26T21:06:39.290Z,95.72
2019-03-26T21:09:09.179Z,95.27
2019-03-26T21:11:38.694Z,94.79
2019-03-26T21:14:08.037Z,94.90
2019-03-26T21:16:37.640Z,94.95
2019-03-26T21:19:07.056Z,94.59
2019-03-26T21:21:36.476Z,94.44
2019-03-26T21:24:06.854Z,94.15
2019-03-26T21:26:36.499Z,94.13
2019-03-26T21:29:06.025Z,94.60
2019-03-26T21:31:35.849Z,94.92
2019-03-26T21:34:05.329Z,94.66
2019-03-26T21:36:34.779Z,94.05
2019-03-26T21:39:05.292Z,94.16
2019-03-26T21:41:36.896Z,94.13
2019-03-26T21:44:06.437Z,93.69
2019-03-26T21:46:35.945Z,93.57
2019-03-26T21:49:05.586Z,93.48
2019-03-26T21:51:35.094Z,93.72
2019-03-26T21:54:04.697Z,94.30
2019-03-26T21:56:37.029Z,94.62
2019-03-26T21:59:10.712Z,94.30
2019-03-26T22:01:41.030Z,93.77
2019-03-26T22:04:10.348Z,93.70
2019-03-26T22:06:39.771Z,93.83
2019-03-26T22:09:09.475Z,93.78
2019-03-26T22:11:49.199Z,93.60
2019-03-26T22:14:18.068Z,93.54
2019-03-26T22:16:41.437Z,93.22
2019-03-26T22:19:10.794Z,93.27
2019-03-26T22:21:40.302Z,93.66
2019-03-26T22:24:09.694Z,93.94
2019-03-26T22:26:39.211Z,93.79
2019-03-26T22:29:08.740Z,93.80
2019-03-26T22:31:38.495Z,93.52
2019-03-26T22:34:07.877Z,92.66
2019-03-26T22:36:37.246Z,92.71
2019-03-26T22:39:08.131Z,93.31
2019-03-26T22:41:37.644Z,93.23
2019-03-26T22:44:07.161Z,93.10
2019-03-26T22:46:36.533Z,93.01
2019-03-26T22:49:05.906Z,93.53
2019-03-26T22:51:35.540Z,93.87
2019-03-26T22:54:04.935Z,93.62
2019-03-26T22:56:34.459Z,93.52
2019-03-26T22:59:04.018Z,93.82
2019-03-26T23:01:33.525Z,93.62
2019-03-26T23:04:03.049Z,93.57
2019-03-26T23:06:32.893Z,93.41
2019-03-26T23:09:02.287Z,93.16
2019-03-26T23:11:31.980Z,93.89
2019-03-26T23:14:01.578Z,93.75
2019-03-26T23:16:31.105Z,93.36
2019-03-26T23:19:00.922Z,93.15
2019-03-26T23:21:30.251Z,93.17
2019-03-26T23:23:59.612Z,93.59
2019-03-26T23:26:29.402Z,93.18
2019-03-26T23:28:58.837Z,92.88
2019-03-26T23:31:28.319Z,92.55
2019-03-26T23:33:57.646Z,92.56
2019-03-26T23:36:27.006Z,92.28
2019-03-26T23:38:56.532Z,92.58
2019-03-26T23:41:25.927Z,92.28
2019-03-26T23:43:55.250Z,92.43
2019-03-26T23:46:24.679Z,92.39
2019-03-26T23:48:54.052Z,92.45
2019-03-26T23:51:23.404Z,92.25
2019-03-26T23:53:52.791Z,91.74
2019-03-26T23:56:22.323Z,91.75
2019-03-26T23:58:51.883Z,91.56
